Time;durP1;ratioP1;P1;durP2;ratioP2;P2;SDS_P1;SDS_P2;PMS_P1;PMS_P2;Temp;Humidity;BMP_temperature;BMP_pressure;BME280_temperature;BME280_humidity;BME280_pressure;Samples;Min_cycle;Max_cycle;Signal;HPM_P1;HPM_P2
2022/05/16 00:02:00;;;;;;;7.90;3.30;;;;;;;11.94;48.85;100462.09;106254;1271;112045;-72
2022/05/16 00:04:32;;;;;;;7.00;2.90;;;;;;;11.93;49.13;100465.96;107150;1271;138028;-73
2022/05/16 00:07:05;;;;;;;7.40;3.00;;;;;;;11.91;49.09;100469.34;106469;1271;107709;-73
2022/05/16 00:09:38;;;;;;;7.70;3.40;;;;;;;11.86;49.30;100469.32;107534;1271;138310;-73
2022/05/16 00:12:13;;;;;;;7.20;2.80;;;;;;;11.81;49.38;100467.04;106865;1271;98554;-72
2022/05/16 00:14:47;;;;;;;5.30;2.90;;;;;;;11.78;49.64;100472.86;107861;1271;111420;-73
2022/05/16 00:17:19;;;;;;;6.70;3.20;;;;;;;11.75;49.61;100476.27;107739;1270;137906;-73
2022/05/16 00:19:51;;;;;;;8.20;3.20;;;;;;;11.72;49.71;100476.23;107839;1271;108937;-73
2022/05/16 00:22:23;;;;;;;6.70;2.80;;;;;;;11.71;49.90;100480.26;106496;1271;137925;-73
2022/05/16 00:24:55;;;;;;;6.60;3.10;;;;;;;11.70;50.00;100482.39;106252;1271;97860;-73
2022/05/16 00:27:27;;;;;;;9.80;3.20;;;;;;;11.71;50.10;100484.63;107727;1271;137960;-73
2022/05/16 00:30:01;;;;;;;7.90;3.30;;;;;;;11.69;50.17;100481.19;106577;1271;108828;-73
2022/05/16 00:32:33;;;;;;;6.20;2.70;;;;;;;11.67;50.24;100481.59;106282;1271;109716;-73
2022/05/16 00:35:07;;;;;;;6.20;3.30;;;;;;;11.66;50.37;100480.77;106218;1270;139128;-72
2022/05/16 00:37:39;;;;;;;7.10;3.50;;;;;;;11.64;50.42;100481.52;106338;1271;97811;-73
2022/05/16 00:40:14;;;;;;;6.40;3.60;;;;;;;11.62;50.55;100485.25;106184;1270;137913;-74
2022/05/16 00:42:46;;;;;;;5.70;3.20;;;;;;;11.59;50.54;100487.61;106295;1271;107763;-73
2022/05/16 00:45:19;;;;;;;5.60;3.20;;;;;;;11.56;50.70;100489.98;106120;1270;138267;-72
2022/05/16 00:47:52;;;;;;;6.90;3.40;;;;;;;11.52;50.73;100491.49;106272;1270;97848;-73
2022/05/16 00:50:24;;;;;;;5.80;3.00;;;;;;;11.50;50.93;100496.60;106288;1271;97848;-72
2022/05/16 00:52:57;;;;;;;7.60;3.60;;;;;;;11.48;51.00;100500.66;106155;1270;137905;-73
2022/05/16 00:55:32;;;;;;;7.20;3.40;;;;;;;11.46;51.13;100499.85;106293;1270;108294;-73
2022/05/16 00:58:12;;;;;;;7.20;3.20;;;;;;;11.44;51.21;100501.14;106790;1270;139068;-73
2022/05/16 01:00:47;;;;;;;8.90;3.20;;;;;;;11.40;51.31;100499.16;106267;1270;98187;-73
2022/05/16 01:06:11;;;;;;;10.60;3.40;;;;;;;11.36;51.59;100501.91;106298;1270;112697;-71
2022/05/16 01:08:44;;;;;;;10.40;3.10;;;;;;;11.34;51.68;100501.82;106314;1270;108977;-73
2022/05/16 01:11:17;;;;;;;8.50;3.00;;;;;;;11.31;51.64;100506.08;106156;1271;138154;-72
2022/05/16 01:13:49;;;;;;;6.90;3.20;;;;;;;11.26;51.74;100503.63;107822;1271;96192;-73
2022/05/16 01:16:22;;;;;;;5.00;2.60;;;;;;;11.23;51.90;100506.67;106442;1271;138265;-73
2022/05/16 01:18:54;;;;;;;5.80;2.60;;;;;;;11.19;51.97;100511.34;107833;1271;112064;-73
2022/05/16 01:21:33;;;;;;;6.30;3.10;;;;;;;11.14;52.02;100510.26;106938;1272;139442;-72
2022/05/16 01:24:10;;;;;;;7.50;3.00;;;;;;;11.08;52.16;100507.48;106396;1271;109015;-72
2022/05/16 01:26:41;;;;;;;;;;;;;;;11.03;52.24;100506.07;106208;1271;98556;-73
2022/05/16 01:29:13;;;;;;;8.10;3.00;;;;;;;10.99;52.33;100511.42;106250;1271;125225;-73
2022/05/16 01:31:46;;;;;;;8.30;3.20;;;;;;;10.96;52.42;100512.55;107807;1271;112257;-74
2022/05/16 01:34:18;;;;;;;5.60;2.80;;;;;;;10.93;52.51;100512.95;107485;1271;137917;-73
2022/05/16 01:36:50;;;;;;;7.00;2.80;;;;;;;10.89;52.62;100513.41;106154;1271;107977;-72
2022/05/16 01:39:23;;;;;;;9.00;2.90;;;;;;;10.86;52.67;100513.70;106056;1273;138281;-71
2022/05/16 01:41:55;;;;;;;7.00;2.50;;;;;;;10.83;52.84;100516.55;106243;1271;98208;-73
2022/05/16 01:44:27;;;;;;;5.40;2.70;;;;;;;10.80;52.94;100520.14;106220;1271;112170;-72
2022/05/16 01:46:59;;;;;;;7.90;2.60;;;;;;;10.75;53.13;100517.31;106118;1271;139996;-72
2022/05/16 01:49:31;;;;;;;6.90;2.50;;;;;;;10.69;53.37;100517.33;106210;1271;106818;-73
2022/05/16 01:52:04;;;;;;;8.60;3.50;;;;;;;10.65;53.51;100519.35;106065;1271;138957;-74
2022/05/16 01:54:36;;;;;;;3.80;2.20;;;;;;;10.62;53.54;100517.89;107819;1271;96073;-73
2022/05/16 01:57:08;;;;;;;5.50;2.90;;;;;;;10.60;53.74;100515.66;107832;1270;111108;-73
2022/05/16 01:59:40;;;;;;;6.00;2.90;;;;;;;10.60;53.88;100515.68;106407;1270;138146;-72
2022/05/16 02:02:13;;;;;;;7.40;2.90;;;;;;;10.62;53.98;100520.48;106266;1271;108912;-74
2022/05/16 02:04:45;;;;;;;8.80;3.20;;;;;;;10.66;53.99;100522.64;106387;1270;139330;-73
2022/05/16 02:07:17;;;;;;;5.70;2.20;;;;;;;10.67;54.14;100522.77;106283;1270;97990;-73
2022/05/16 02:09:49;;;;;;;6.60;2.80;;;;;;;10.69;54.16;100522.88;106193;1270;138003;-73
2022/05/16 02:12:21;;;;;;;11.20;2.90;;;;;;;10.68;54.22;100526.73;106259;1270;109202;-73
2022/05/16 02:14:53;;;;;;;4.80;2.60;;;;;;;10.68;54.31;100535.45;106280;1270;108881;-73
2022/05/16 02:17:25;;;;;;;5.20;3.10;;;;;;;10.67;54.37;100536.15;106202;1270;138598;-74
2022/05/16 02:19:58;;;;;;;13.30;7.70;;;;;;;10.66;54.48;100534.98;106222;1271;97686;-74
2022/05/16 02:25:20;;;;;;;12.40;5.50;;;;;;;10.61;54.66;100533.55;106206;1271;108748;-74
2022/05/16 02:27:52;;;;;;;10.40;6.80;;;;;;;10.56;54.85;100531.58;107611;1271;138278;-74
2022/05/16 02:30:25;;;;;;;10.50;6.60;;;;;;;10.52;55.00;100535.88;107813;1271;96062;-72
2022/05/16 02:32:57;;;;;;;15.00;9.00;;;;;;;10.50;55.18;100538.71;107763;1271;95766;-72
2022/05/16 02:35:29;;;;;;;16.70;8.50;;;;;;;10.46;55.39;100538.30;107737;1270;137931;-71
2022/05/16 02:38:01;;;;;;;19.30;14.20;;;;;;;10.46;55.50;100539.36;107838;1270;108263;-73
2022/05/16 02:40:36;;;;;;;27.30;19.00;;;;;;;10.44;55.68;100544.46;107706;1270;139029;-72
2022/05/16 02:43:08;;;;;;;28.20;19.20;;;;;;;10.40;55.79;100544.35;107789;1270;96084;-72
2022/05/16 02:45:40;;;;;;;32.50;22.70;;;;;;;10.41;55.87;100545.39;107726;1271;139419;-71
2022/05/16 02:48:12;;;;;;;35.10;24.30;;;;;;;10.45;56.05;100545.30;107802;1271;111438;-72
2022/05/16 02:50:44;;;;;;;35.90;26.90;;;;;;;10.49;56.06;100547.10;107349;1271;107793;-72
2022/05/16 02:53:16;;;;;;;33.50;27.90;;;;;;;10.54;56.13;100547.63;106060;1271;138319;-72
2022/05/16 02:55:48;;;;;;;35.00;22.50;;;;;;;10.58;56.01;100551.36;106277;1270;97930;-72
2022/05/16 02:58:21;;;;;;;27.80;21.90;;;;;;;10.60;56.07;100546.61;106312;1270;138010;-73
2022/05/16 03:00:53;;;;;;;28.30;20.30;;;;;;;10.59;56.03;100545.23;107838;1271;112917;-73
2022/05/16 03:03:25;;;;;;;23.60;17.90;;;;;;;10.54;56.00;100545.73;106340;1271;138392;-73
2022/05/16 03:05:57;;;;;;;21.30;15.90;;;;;;;10.50;56.16;100543.05;106288;1270;108153;-73
2022/05/16 03:08:34;;;;;;;26.50;16.40;;;;;;;10.48;56.24;100545.55;106208;1271;97835;-73
2022/05/16 03:11:07;;;;;;;14.80;11.20;;;;;;;10.44;56.19;100542.89;106160;1270;140077;-73
2022/05/16 03:13:39;;;;;;;15.50;9.70;;;;;;;10.42;56.32;100541.21;107835;1270;112454;-73
2022/05/16 03:16:11;;;;;;;16.70;9.90;;;;;;;10.39;56.37;100542.30;107743;1270;138637;-73
2022/05/16 03:18:43;;;;;;;13.70;7.90;;;;;;;10.38;56.44;100541.29;107819;1270;107633;-73
2022/05/16 03:21:16;;;;;;;12.30;6.80;;;;;;;10.38;56.43;100546.00;106631;1270;97833;-73
2022/05/16 03:23:48;;;;;;;12.30;5.80;;;;;;;10.38;56.61;100549.13;106236;1271;97816;-72
2022/05/16 03:26:20;;;;;;;9.10;5.30;;;;;;;10.38;56.56;100548.24;106215;1270;111939;-72
2022/05/16 03:28:52;;;;;;;10.40;4.60;;;;;;;10.40;56.57;100546.81;107707;1271;138092;-73
2022/05/16 03:31:25;;;;;;;8.30;4.40;;;;;;;10.42;56.63;100546.25;107788;1271;108759;-73
2022/05/16 03:33:57;;;;;;;9.80;3.90;;;;;;;10.46;56.66;100547.17;107714;1270;138611;-73
2022/05/16 03:36:29;;;;;;;10.10;3.30;;;;;;;10.51;56.65;100548.58;107825;1270;96022;-73
2022/05/16 03:41:50;;;;;;;8.60;3.40;;;;;;;10.61;56.47;100550.40;107893;1269;108867;-73
2022/05/16 03:44:23;;;;;;;5.20;3.10;;;;;;;10.73;56.37;100548.50;107848;1270;108001;-73
2022/05/16 03:46:55;;;;;;;6.50;3.00;;;;;;;10.84;56.19;100545.95;107761;1270;138373;-73
2022/05/16 03:49:29;;;;;;;8.20;2.70;;;;;;;10.93;55.95;100553.66;107761;1270;96303;-73
2022/05/16 03:52:02;;;;;;;8.70;3.00;;;;;;;10.95;55.82;100553.98;106248;1270;137976;-73
2022/05/16 03:54:34;;;;;;;9.00;3.20;;;;;;;10.98;55.84;100554.08;107875;1270;107981;-73
2022/05/16 03:57:06;;;;;;;6.00;3.10;;;;;;;11.06;55.81;100552.77;107869;1270;108993;-73
2022/05/16 03:59:38;;;;;;;7.30;2.60;;;;;;;11.14;55.70;100557.41;107753;1270;137871;-73
2022/05/16 04:02:10;;;;;;;8.90;3.10;;;;;;;11.23;55.40;100561.34;107877;1270;96256;-73
2022/05/16 04:04:43;;;;;;;3.80;2.70;;;;;;;11.25;55.19;100562.48;107410;1270;137871;-73
2022/05/16 04:07:15;;;;;;;7.30;2.70;;;;;;;11.29;55.05;100565.31;106277;1270;109092;-73
2022/05/16 04:09:47;;;;;;;4.90;2.70;;;;;;;11.30;54.98;100562.67;106199;1270;138190;-73
2022/05/16 04:12:19;;;;;;;8.40;2.70;;;;;;;11.32;54.89;100566.83;106249;1270;97891;-72
2022/05/16 04:14:52;;;;;;;6.30;2.90;;;;;;;11.36;54.89;100569.30;106351;1270;97875;-73
2022/05/16 04:17:24;;;;;;;4.80;2.50;;;;;;;11.42;54.79;100572.77;106191;1270;138918;-72
2022/05/16 04:19:56;;;;;;;6.20;2.60;;;;;;;11.41;54.55;100573.48;106311;1270;108521;-73
2022/05/16 04:22:30;;;;;;;4.60;2.30;;;;;;;11.44;54.41;100574.96;106984;1270;139324;-72
2022/05/16 04:25:02;;;;;;;6.10;2.40;;;;;;;11.50;54.36;100577.20;107872;1270;96207;-72
2022/05/16 04:27:34;;;;;;;5.90;2.60;;;;;;;11.60;54.08;100574.84;107457;1270;379629;-73
2022/05/16 04:30:09;;;;;;;7.30;2.60;;;;;;;11.73;53.93;100576.17;107876;1270;112416;-74
2022/05/16 04:32:41;;;;;;;8.10;4.20;;;;;;;11.88;53.79;100577.11;107858;1270;109178;-74
2022/05/16 04:35:15;;;;;;;6.10;2.90;;;;;;;12.11;53.60;100573.39;107742;1270;137943;-73
2022/05/16 04:37:48;;;;;;;10.20;4.50;;;;;;;12.33;53.28;100574.05;107259;1270;97957;-73
2022/05/16 04:40:20;;;;;;;7.80;3.20;;;;;;;12.54;52.96;100574.19;106811;1270;139178;-71
2022/05/16 04:42:52;;;;;;;7.10;2.70;;;;;;;12.72;52.66;100575.30;107815;1270;110833;-72
2022/05/16 04:45:28;;;;;;;7.00;3.10;;;;;;;12.85;52.11;100576.73;106666;1270;138552;-71
2022/05/16 04:48:04;;;;;;;7.10;2.90;;;;;;;13.05;52.05;100577.02;106303;1270;107801;-72
2022/05/16 04:50:36;;;;;;;8.00;3.10;;;;;;;13.26;51.58;100577.89;107864;1270;96095;-73
2022/05/16 04:53:08;;;;;;;14.80;7.30;;;;;;;13.41;51.32;100582.02;107734;1270;138235;-73
2022/05/16 04:55:41;;;;;;;9.20;3.70;;;;;;;13.59;51.25;100575.88;107873;1270;110428;-73
2022/05/16 04:58:13;;;;;;;7.30;3.00;;;;;;;13.80;50.95;100575.91;107771;1270;137939;-73
2022/05/16 05:00:45;;;;;;;7.50;2.90;;;;;;;14.00;50.63;100570.39;107851;1270;108781;-73
2022/05/16 05:03:17;;;;;;;9.10;3.00;;;;;;;14.23;50.56;100564.89;107738;1270;138637;-71
2022/05/16 05:05:50;;;;;;;6.40;3.30;;;;;;;14.51;50.18;100565.45;107844;1270;95732;-73
2022/05/16 05:08:22;;;;;;;9.90;3.60;;;;;;;14.75;49.82;100565.82;107864;1268;111304;-72
2022/05/16 05:16:33;;;;;;;10.10;3.60;;;;;;;15.67;49.33;100574.35;107721;1270;138139;-73
2022/05/16 05:19:06;;;;;;;6.20;2.80;;;;;;;16.37;48.89;100570.92;107894;1270;96007;-73
2022/05/16 05:21:37;;;;;;;6.30;2.30;;;;;;;17.68;47.33;100566.30;107125;1270;137897;-72
2022/05/16 05:24:10;;;;;;;6.90;2.10;;;;;;;19.80;45.27;100564.98;106324;1270;109126;-72
2022/05/16 05:26:43;;;;;;;7.60;2.70;;;;;;;22.16;41.98;100554.09;106275;1271;108889;-72
2022/05/16 05:29:16;;;;;;;6.20;1.90;;;;;;;24.05;38.54;100550.60;106144;1270;137871;-73
2022/05/16 05:31:48;;;;;;;4.50;1.60;;;;;;;25.60;36.06;100544.08;106354;1270;98915;-74
2022/05/16 05:34:21;;;;;;;10.00;2.20;;;;;;;27.17;34.17;100539.70;107450;1270;138019;-75
2022/05/16 05:36:56;;;;;;;6.60;1.80;;;;;;;28.72;32.19;100533.40;106306;1270;109159;-73
2022/05/16 05:39:31;;;;;;;6.10;2.30;;;;;;;30.13;30.06;100528.04;106197;1270;137968;-72
2022/05/16 05:42:03;;;;;;;5.00;2.00;;;;;;;31.18;28.09;100527.55;107776;1270;96375;-73
2022/05/16 05:44:35;;;;;;;4.70;2.00;;;;;;;32.01;26.75;100524.79;107661;1270;97173;-72
2022/05/16 05:47:09;;;;;;;5.90;2.10;;;;;;;32.89;25.56;100523.42;106185;1270;138084;-72
2022/05/16 05:49:42;;;;;;;5.80;2.40;;;;;;;33.88;24.42;100526.13;106210;1270;108734;-74
2022/05/16 05:52:15;;;;;;;5.00;2.70;;;;;;;34.85;23.40;100529.29;106339;1270;138162;-72
2022/05/16 05:54:49;;;;;;;6.00;1.80;;;;;;;35.62;21.91;100532.11;106270;1270;98200;-71
2022/05/16 05:57:21;;;;;;;6.00;2.00;;;;;;;36.29;20.97;100536.81;106198;1270;138470;-72
2022/05/16 05:59:53;;;;;;;3.90;2.10;;;;;;;36.75;20.11;100525.20;107757;1270;111490;-73
2022/05/16 06:02:26;;;;;;;5.00;1.80;;;;;;;37.16;19.56;100525.77;106830;1270;108975;-71
2022/05/16 06:04:58;;;;;;;3.40;1.50;;;;;;;37.37;18.74;100525.77;106053;1270;138469;-72
2022/05/16 06:07:32;;;;;;;4.80;1.70;;;;;;;37.84;18.22;100523.90;106201;1270;97845;-71
2022/05/16 06:10:06;;;;;;;3.30;1.60;;;;;;;37.93;17.45;100524.89;106075;1270;138185;-71
2022/05/16 06:12:39;;;;;;;8.20;1.60;;;;;;;38.21;17.44;100526.71;107782;1271;112522;-72
2022/05/16 06:15:13;;;;;;;2.70;1.30;;;;;;;38.62;17.24;100527.41;107847;1270;108551;-71
2022/05/16 06:17:46;;;;;;;3.20;1.50;;;;;;;38.85;16.29;100526.14;107837;1270;109109;-71
2022/05/16 06:20:18;;;;;;;4.10;1.40;;;;;;;38.91;15.91;100524.33;107850;1270;96097;-71
2022/05/16 06:22:50;;;;;;;4.90;1.60;;;;;;;39.07;15.61;100526.00;107753;1268;137608;-71
2022/05/16 06:25:32;;;;;;;6.10;1.60;;;;;;;39.23;15.76;100523.45;107166;1270;111898;-71
2022/05/16 06:28:07;;;;;;;8.00;1.30;;;;;;;39.64;15.33;100531.71;106611;1270;137883;-70
2022/05/16 06:30:42;;;;;;;6.90;1.60;;;;;;;39.88;15.06;100529.36;106219;1270;108764;-71
2022/05/16 06:33:15;;;;;;;5.80;1.70;;;;;;;39.98;14.54;100526.20;107604;1270;96229;-70
2022/05/16 06:35:48;;;;;;;5.80;3.70;;;;;;;40.07;14.65;100527.80;107753;1270;96291;-70
2022/05/16 06:38:25;;;;;;;14.50;9.40;;;;;;;40.29;14.30;100525.85;107855;1270;111225;-71
2022/05/16 06:40:58;;;;;;;4.80;2.30;;;;;;;40.49;14.02;100527.64;107688;1269;139928;-71
2022/05/16 06:43:31;;;;;;;3.90;1.80;;;;;;;40.86;14.05;100521.14;106772;1270;108892;-71
2022/05/16 06:46:04;;;;;;;7.70;1.70;;;;;;;41.16;13.78;100524.57;107709;1270;138509;-70
2022/05/16 06:48:36;;;;;;;6.40;2.80;;;;;;;41.41;13.52;100521.13;107807;1270;95996;-71
2022/05/16 06:51:08;;;;;;;4.60;1.60;;;;;;;41.75;13.15;100523.08;107326;1270;112448;-72
2022/05/16 06:53:40;;;;;;;5.60;1.80;;;;;;;41.98;13.01;100526.86;106144;1270;137956;-71
2022/05/16 06:56:13;;;;;;;5.40;2.00;;;;;;;42.22;12.82;100529.17;106259;1270;108930;-73
2022/05/16 06:58:45;;;;;;;8.20;1.70;;;;;;;42.10;12.54;100526.46;107720;1270;138926;-70
2022/05/16 07:01:17;;;;;;;6.30;1.30;;;;;;;42.08;12.29;100534.34;107721;1270;96025;-71
2022/05/16 07:03:50;;;;;;;4.50;1.50;;;;;;;41.87;12.26;100535.07;106206;1270;138451;-70
2022/05/16 07:06:22;;;;;;;4.80;1.20;;;;;;;41.78;12.12;100536.44;107837;1270;108261;-71
2022/05/16 07:08:54;;;;;;;6.60;1.50;;;;;;;41.53;12.00;100535.38;106305;1270;108882;-72
2022/05/16 07:11:27;;;;;;;4.20;2.00;;;;;;;41.68;12.13;100537.04;106146;1270;138013;-72
2022/05/16 07:13:59;;;;;;;5.30;3.80;;;;;;;41.76;12.06;100535.02;106179;1271;97856;-71
2022/05/16 07:16:31;;;;;;;8.80;4.50;;;;;;;41.73;11.49;100536.23;106435;1269;137694;-72
2022/05/16 07:19:03;;;;;;;3.40;1.20;;;;;;;41.55;11.69;100538.27;106269;1270;108827;-71
2022/05/16 07:21:38;;;;;;;3.10;1.40;;;;;;;41.66;11.42;100536.27;107691;1270;137816;-71
2022/05/16 07:24:11;;;;;;;3.50;1.00;;;;;;;41.92;11.26;100540.02;107836;1270;96178;-72
2022/05/16 07:29:33;;;;;;;2.20;0.90;;;;;;;42.31;10.85;100545.81;106117;1270;137751;-71
2022/05/16 07:32:06;;;;;;;4.90;1.00;;;;;;;42.39;10.66;100545.55;106181;1271;108760;-72
2022/05/16 07:34:38;;;;;;;3.40;0.90;;;;;;;42.19;10.40;100542.66;107687;1270;138892;-71
2022/05/16 07:37:10;;;;;;;6.50;0.70;;;;;;;42.05;10.47;100546.70;107815;1269;95890;-71
2022/05/16 07:39:42;;;;;;;4.10;0.90;;;;;;;41.83;10.26;100548.20;106139;1270;138232;-71
2022/05/16 07:42:14;;;;;;;4.60;0.90;;;;;;;41.59;10.31;100543.96;106182;1270;112121;-72
2022/05/16 07:44:50;;;;;;;5.10;1.20;;;;;;;41.49;10.34;100550.19;107596;1270;110422;-71
2022/05/16 07:47:24;;;;;;;3.00;0.90;;;;;;;41.64;10.35;100548.17;107438;1270;139412;-71
2022/05/16 07:49:56;;;;;;;3.20;0.90;;;;;;;41.78;10.18;100549.38;107845;1270;96215;-71
2022/05/16 07:52:30;;;;;;;3.00;1.00;;;;;;;41.81;10.09;100545.09;107656;1270;138512;-72
2022/05/16 07:55:03;;;;;;;3.70;0.90;;;;;;;42.06;10.32;100548.75;107606;1269;112478;-70
2022/05/16 07:57:35;;;;;;;3.90;1.00;;;;;;;42.34;9.98;100546.73;106189;1271;137915;-72
2022/05/16 08:00:10;;;;;;;4.60;1.50;;;;;;;42.31;9.88;100549.77;107804;1270;107991;-72
2022/05/16 08:02:42;;;;;;;5.50;0.90;;;;;;;42.00;9.69;100546.73;106851;1264;98024;-71
2022/05/16 08:05:16;;;;;;;6.10;0.90;;;;;;;41.54;9.66;100543.48;106242;1268;137503;-71
2022/05/16 08:10:39;;;;;;;3.80;0.80;;;;;;;40.45;9.47;100553.15;107839;1268;138010;-71
2022/05/16 08:13:13;;;;;;;4.60;0.90;;;;;;;40.17;9.75;100550.65;107897;1267;108215;-72
2022/05/16 08:15:45;;;;;;;4.20;0.70;;;;;;;40.08;9.91;100546.56;107793;1268;137873;-71
2022/05/16 08:18:17;;;;;;;5.20;0.70;;;;;;;40.04;9.71;100546.80;107930;1268;95893;-72
2022/05/16 08:20:51;;;;;;;2.80;0.80;;;;;;;39.86;9.83;100546.38;107972;1267;111449;-72
2022/05/16 08:23:27;;;;;;;1.70;0.80;;;;;;;39.52;9.92;100553.38;107796;1268;137607;-71
2022/05/16 08:26:01;;;;;;;1.40;0.60;;;;;;;39.64;10.20;100546.16;107256;1270;108744;-71
2022/05/16 08:28:34;;;;;;;2.10;0.50;;;;;;;39.76;10.14;100547.58;106277;1268;137870;-71
2022/05/16 08:31:07;;;;;;;2.80;0.70;;;;;;;39.71;10.07;100548.55;106393;1268;97813;-71
2022/05/16 08:33:41;;;;;;;6.40;3.20;;;;;;;39.69;10.13;100549.08;107171;1268;137789;-71
2022/05/16 08:41:56;;;;;;;3.70;0.60;;;;;;;39.74;10.17;100557.04;107893;1268;96087;-71
2022/05/16 08:44:38;;;;;;;2.90;0.70;;;;;;;39.85;10.37;100555.89;107589;1268;95766;-70
2022/05/16 08:47:30;;;;;;;2.90;0.80;;;;;;;39.58;10.36;100553.16;107844;1268;138123;-71
2022/05/16 08:50:08;;;;;;;3.30;0.90;;;;;;;39.57;10.11;100548.23;107912;1268;108856;-71
2022/05/16 08:52:44;;;;;;;3.10;0.70;;;;;;;38.99;10.06;100537.21;107789;1268;138259;-71
2022/05/16 08:55:27;;;;;;;3.90;1.00;;;;;;;38.69;10.43;100543.98;107897;1268;96047;-71
2022/05/16 08:58:05;;;;;;;1.50;0.70;;;;;;;38.71;10.62;100543.58;107754;1268;139339;-80
2022/05/16 09:00:47;;;;;;;3.20;0.70;;;;;;;38.59;10.36;100549.63;107931;1268;112605;-72
2022/05/16 09:03:24;;;;;;;4.40;0.70;;;;;;;38.62;10.55;100545.88;106493;1268;139545;-72
2022/05/16 09:06:02;;;;;;;2.10;1.10;;;;;;;38.34;10.48;100550.92;106326;1270;108679;-71
2022/05/16 09:08:47;;;;;;;3.90;0.60;;;;;;;38.23;10.83;100544.93;107106;1270;97832;-71
2022/05/16 09:11:28;;;;;;;3.00;0.50;;;;;;;37.89;10.32;100553.61;106227;1270;137664;-72
2022/05/16 09:14:04;;;;;;;1.10;0.20;;;;;;;37.52;10.08;100555.15;106441;1270;111002;-71
2022/05/16 09:16:50;;;;;;;2.90;0.60;;;;;;;37.47;10.09;100548.23;106307;1270;137872;-72
2022/05/16 09:19:35;;;;;;;0.90;0.40;;;;;;;37.41;10.21;100545.80;106431;1270;110338;-72
2022/05/16 09:22:13;;;;;;;3.30;0.50;;;;;;;37.30;10.04;100542.00;106278;1270;138692;-75
2022/05/16 09:24:49;;;;;;;4.90;1.20;;;;;;;37.36;10.24;100548.14;106359;1270;97873;-73
2022/05/16 09:30:16;;;;;;;10.40;1.80;;;;;;;37.23;10.29;100541.52;106500;1276;106620;-73
2022/05/16 09:32:53;;;;;;;9.90;2.20;;;;;;;37.03;10.22;100538.45;106022;1276;109123;-76
2022/05/16 09:35:35;;;;;;;6.90;0.70;;;;;;;36.80;10.21;100544.42;105818;1276;138320;-76
2022/05/16 09:38:07;;;;;;;2.90;0.90;;;;;;;36.53;9.95;100549.44;107453;1274;96247;-78
2022/05/16 09:40:42;;;;;;;5.00;1.40;;;;;;;36.40;10.07;100554.84;106309;1276;137546;-77
2022/05/16 09:43:20;;;;;;;3.40;0.90;;;;;;;36.03;10.44;100561.30;107413;1276;108989;-76
2022/05/16 09:45:56;;;;;;;3.20;0.60;;;;;;;35.92;10.34;100550.67;107274;1276;137757;-74
2022/05/16 09:48:28;;;;;;;2.00;0.60;;;;;;;35.66;10.23;100552.90;107399;1275;95776;-78
2022/05/16 09:51:03;;;;;;;1.20;0.60;;;;;;;35.21;10.17;100551.82;106467;1275;97860;-79
2022/05/16 09:53:37;;;;;;;2.20;1.00;;;;;;;34.93;10.63;100547.69;105870;1276;137493;-74
2022/05/16 09:56:20;;;;;;;2.10;0.90;;;;;;;34.97;11.09;100546.08;106008;1276;108860;-77
2022/05/16 09:58:55;;;;;;;2.60;1.00;;;;;;;35.23;11.21;100545.48;105846;1276;139774;-74
2022/05/16 10:01:38;;;;;;;5.40;0.80;;;;;;;35.10;11.12;100543.60;107350;1276;96167;-75
2022/05/16 10:04:13;;;;;;;2.40;0.70;;;;;;;35.20;11.30;100545.55;107320;1276;137770;-76
2022/05/16 10:06:58;;;;;;;3.50;0.60;;;;;;;35.23;10.96;100548.15;107470;1276;111320;-75
2022/05/16 10:09:36;;;;;;;2.20;0.70;;;;;;;34.97;11.04;100542.61;106308;1270;137900;-75
2022/05/16 10:12:12;;;;;;;4.80;0.80;;;;;;;34.98;11.20;100541.57;106419;1271;109099;-78
2022/05/16 10:14:46;;;;;;;1.70;0.70;;;;;;;34.92;11.26;100551.05;106410;1268;97833;-75
2022/05/16 10:17:26;;;;;;;2.00;0.70;;;;;;;35.02;11.27;100550.27;106310;1270;137554;-77
2022/05/16 10:20:03;;;;;;;1.40;0.80;;;;;;;35.14;11.09;100547.95;106466;1270;112460;-78
2022/05/16 10:22:36;;;;;;;2.30;0.70;;;;;;;34.95;11.08;100544.27;107725;1269;137681;-78
2022/05/16 10:25:33;;;;;;;3.30;0.70;;;;;;;34.93;11.55;100547.77;107805;1270;108755;-78
2022/05/16 10:28:09;;;;;;;3.00;0.90;;;;;;;35.02;11.47;100542.69;106691;1270;137708;-79
2022/05/16 10:33:35;;;;;;;0.80;0.60;;;;;;;34.61;11.42;100543.13;107161;1269;137743;-78
2022/05/16 10:36:09;;;;;;;2.90;0.90;;;;;;;34.54;11.78;100533.88;107895;1270;107554;-80
2022/05/16 10:38:48;;;;;;;3.90;0.80;;;;;;;34.33;11.54;100535.05;107861;1270;107999;-79
2022/05/16 10:41:25;;;;;;;7.90;0.70;;;;;;;33.96;11.59;100536.52;107764;1270;138286;-78
2022/05/16 10:44:08;;;;;;;1.60;0.60;;;;;;;33.63;11.42;100538.04;107918;1269;96168;-79
2022/05/16 10:46:44;;;;;;;2.00;0.60;;;;;;;33.10;11.29;100535.94;107563;1270;137689;-79
2022/05/16 10:49:21;;;;;;;3.20;0.60;;;;;;;32.68;11.56;100529.61;107792;1269;108887;-79
2022/05/16 10:51:58;;;;;;;3.30;0.50;;;;;;;32.45;11.86;100531.54;107667;1270;138077;-80
2022/05/16 10:54:31;;;;;;;2.00;0.50;;;;;;;32.12;11.87;100534.32;107373;1270;97926;-78
2022/05/16 10:57:20;;;;;;;2.70;0.50;;;;;;;31.94;12.35;100532.95;106296;1270;97830;-78
2022/05/16 11:00:06;;;;;;;2.70;0.70;;;;;;;31.57;12.24;100529.64;106028;1276;111880;-78
2022/05/16 11:03:13;;;;;;;3.40;0.70;;;;;;;31.03;12.40;100528.36;106773;1276;108845;-79
2022/05/16 11:06:06;;;;;;;1.80;0.80;;;;;;;30.56;12.70;100522.48;107451;1276;108857;-79
2022/05/16 11:08:46;;;;;;;1.60;0.80;;;;;;;30.14;12.76;100514.27;106775;1276;97825;-78
2022/05/16 11:11:28;;;;;;;1.30;0.60;;;;;;;29.60;13.08;100517.86;107378;1276;137926;-76
2022/05/16 11:14:06;;;;;;;2.40;0.60;;;;;;;29.48;13.69;100512.58;106738;1276;111228;-78
2022/05/16 11:16:40;;;;;;;2.00;0.70;;;;;;;29.45;13.34;100507.84;106358;1276;138162;-80
2022/05/16 11:19:29;;;;;;;3.50;0.90;;;;;;;29.41;13.58;100500.88;107455;1276;109040;-79
2022/05/16 11:22:13;;;;;;;0.80;0.50;;;;;;;29.38;13.74;100489.39;105990;1276;138348;-77
2022/05/16 11:24:53;;;;;;;2.30;0.40;;;;;;;29.12;13.42;100493.23;106020;1276;98094;-77
2022/05/16 11:27:33;;;;;;;3.20;0.50;;;;;;;28.72;13.80;100494.06;105864;1276;138397;-76
2022/05/16 11:30:15;;;;;;;2.30;0.70;;;;;;;28.55;14.04;100489.90;107365;1276;109249;-78
2022/05/16 11:33:00;;;;;;;3.20;0.70;;;;;;;28.42;14.11;100488.84;107506;1276;108922;-78
2022/05/16 11:35:41;;;;;;;2.30;0.70;;;;;;;28.33;14.51;100488.45;107376;1276;138307;-78
2022/05/16 11:38:28;;;;;;;9.70;7.10;;;;;;;28.22;14.25;100490.31;107661;1270;96568;-80
2022/05/16 11:41:19;;;;;;;3.10;2.50;;;;;;;27.97;14.09;100485.91;107757;1269;137692;-74
2022/05/16 11:43:57;;;;;;;3.00;1.50;;;;;;;27.92;14.48;100483.93;107915;1270;109006;-75
2022/05/16 11:46:41;;;;;;;2.60;0.50;;;;;;;27.93;14.55;100482.14;107787;1269;137934;-75
2022/05/16 11:49:41;;;;;;;2.80;0.70;;;;;;;27.84;14.49;100480.05;107915;1270;96153;-75
2022/05/16 11:52:41;;;;;;;3.30;1.00;;;;;;;27.74;14.49;100475.95;107791;1270;137859;-74
2022/05/16 12:01:06;;;;;;;2.20;0.90;;;;;;;27.88;15.20;100471.95;107783;1270;108048;-75
2022/05/16 12:03:43;;;;;;;1.10;0.80;;;;;;;27.89;14.91;100476.18;106494;1268;138119;-76
2022/05/16 12:06:25;;;;;;;1.10;0.60;;;;;;;27.85;14.71;100474.41;106447;1269;97835;-76
2022/05/16 12:09:19;;;;;;;1.50;0.60;;;;;;;27.88;14.41;100465.15;106517;1270;112999;-75
2022/05/16 12:11:55;;;;;;;1.40;0.50;;;;;;;27.82;14.73;100463.67;106411;1271;109546;-77
2022/05/16 12:14:34;;;;;;;2.80;0.60;;;;;;;27.65;14.72;100461.58;106376;1270;108014;-77
2022/05/16 12:17:23;;;;;;;2.40;0.80;;;;;;;27.32;14.48;100473.08;107795;1270;139121;-77
2022/05/16 12:19:55;;;;;;;3.40;0.80;;;;;;;27.10;14.75;100467.60;106852;1270;97818;-77
2022/05/16 12:22:46;;;;;;;1.70;0.60;;;;;;;27.03;14.74;100465.79;106324;1271;138040;-76